Time;durP1;ratioP1;P1;durP2;ratioP2;P2;SDS_P1;SDS_P2;PMS_P1;PMS_P2;Temp;Humidity;BMP_temperature;BMP_pressure;BME280_temperature;BME280_humidity;BME280_pressure;Samples;Min_cycle;Max_cycle;Signal;HPM_P1;HPM_P2
2022/04/17 00:01:48;;;;;;;12.30;8.50;;;10.50;23.00;;;;;;5109059;28;20504;-65
2022/04/17 00:04:14;;;;;;;16.00;8.00;;;10.40;21.20;;;;;;5113278;28;20200;-65
2022/04/17 00:06:41;;;;;;;12.48;7.55;;;10.20;21.90;;;;;;5111678;28;20183;-66
2022/04/17 00:09:06;;;;;;;13.57;7.75;;;10.60;21.90;;;;;;5112892;28;20261;-66
2022/04/17 00:11:34;;;;;;;12.17;7.90;;;10.90;21.50;;;;;;5104798;28;20266;-65
2022/04/17 00:14:00;;;;;;;12.02;7.53;;;11.10;21.10;;;;;;5112851;28;20191;-65
2022/04/17 00:16:25;;;;;;;11.20;7.03;;;10.90;21.00;;;;;;5113134;28;20221;-66
2022/04/17 00:18:51;;;;;;;12.97;7.83;;;11.00;21.50;;;;;;5107620;28;20179;-65
2022/04/17 00:21:17;;;;;;;13.40;7.80;;;10.60;20.60;;;;;;5112441;28;20184;-66
2022/04/17 00:23:44;;;;;;;12.00;7.80;;;10.60;22.20;;;;;;5092451;28;20189;-66
2022/04/17 00:26:10;;;;;;;14.80;8.00;;;10.60;20.40;;;;;;5092792;28;20635;-65
2022/04/17 00:28:36;;;;;;;13.83;7.60;;;10.60;20.30;;;;;;5103557;28;20186;-65
2022/04/17 00:31:01;;;;;;;16.93;7.97;;;10.70;19.80;;;;;;5112285;28;20427;-65
2022/04/17 00:33:27;;;;;;;17.20;8.13;;;10.60;19.90;;;;;;5110818;28;20223;-66
2022/04/17 00:35:53;;;;;;;13.50;7.40;;;11.00;21.20;;;;;;5112440;28;20274;-65
2022/04/17 00:38:18;;;;;;;11.90;7.47;;;10.90;20.20;;;;;;5109073;28;20710;-65
2022/04/17 00:40:44;;;;;;;11.03;7.50;;;10.70;21.70;;;;;;5093975;28;20178;-65
2022/04/17 00:43:26;;;;;;;14.95;7.60;;;10.60;21.70;;;;;;5105048;28;20210;-65
2022/04/17 00:45:53;;;;;;;12.50;7.55;;;10.50;20.90;;;;;;5086403;28;20191;-65
2022/04/17 00:48:19;;;;;;;12.10;8.32;;;10.50;21.00;;;;;;5112283;28;20164;-64
2022/04/17 00:50:46;;;;;;;16.92;8.13;;;10.00;21.40;;;;;;5109359;28;20237;-64
2022/04/17 00:53:12;;;;;;;13.57;7.97;;;10.80;21.00;;;;;;5111715;28;20180;-65
2022/04/17 00:55:40;;;;;;;10.23;6.90;;;10.60;21.10;;;;;;5112283;28;20269;-65
2022/04/17 00:58:06;;;;;;;11.30;7.45;;;10.70;20.50;;;;;;5112288;28;20193;-66
2022/04/17 01:00:33;;;;;;;13.17;8.23;;;10.40;21.90;;;;;;5109194;28;20623;-65
2022/04/17 01:02:59;;;;;;;12.30;7.60;;;10.70;22.30;;;;;;5112173;28;20174;-65
2022/04/17 01:05:25;;;;;;;13.35;7.75;;;10.70;21.50;;;;;;5097685;28;20238;-65
2022/04/17 01:07:53;;;;;;;14.68;8.50;;;10.30;21.00;;;;;;5073584;28;20182;-65
2022/04/17 01:10:19;;;;;;;14.07;7.68;;;10.30;22.40;;;;;;5094306;28;20183;-65
2022/04/17 01:12:45;;;;;;;16.90;8.60;;;10.20;21.10;;;;;;5091693;28;20178;-65
2022/04/17 01:15:11;;;;;;;14.70;8.88;;;10.10;21.70;;;;;;5092644;28;20456;-65
2022/04/17 01:17:37;;;;;;;15.70;9.00;;;10.10;22.70;;;;;;5091666;28;20208;-65
2022/04/17 01:20:04;;;;;;;17.83;8.57;;;10.30;22.20;;;;;;5091978;28;20235;-66
2022/04/17 01:22:29;;;;;;;11.40;8.10;;;10.30;22.90;;;;;;5099385;28;20258;-65
2022/04/17 01:27:40;;;;;;;15.60;9.48;;;10.20;22.80;;;;;;5103087;28;20221;-66
2022/04/17 01:30:06;;;;;;;13.98;8.52;;;10.20;23.40;;;;;;5100606;28;20185;-65
2022/04/17 01:32:32;;;;;;;17.02;8.70;;;10.30;22.30;;;;;;5112312;28;20207;-65
2022/04/17 01:34:57;;;;;;;13.83;9.00;;;10.10;23.50;;;;;;5110781;28;20315;-65
2022/04/17 01:37:23;;;;;;;16.83;9.13;;;10.30;23.50;;;;;;5111347;28;20216;-65
2022/04/17 01:39:49;;;;;;;15.40;9.10;;;10.30;23.00;;;;;;5107017;28;20200;-66
2022/04/17 01:42:16;;;;;;;15.47;8.90;;;10.00;21.70;;;;;;5103565;28;20205;-65
2022/04/17 01:44:42;;;;;;;13.65;8.38;;;9.90;23.00;;;;;;5115051;28;20239;-65
2022/04/17 01:47:08;;;;;;;14.23;8.20;;;9.70;23.70;;;;;;5101332;28;20641;-66
2022/04/17 01:49:34;;;;;;;15.57;9.13;;;10.00;22.80;;;;;;5094791;28;20257;-66
2022/04/17 01:52:01;;;;;;;13.50;8.77;;;10.00;24.00;;;;;;5109820;28;20196;-65
2022/04/17 01:54:27;;;;;;;13.25;8.35;;;10.00;23.20;;;;;;5114343;28;20230;-66
2022/04/17 01:56:55;;;;;;;23.15;8.45;;;10.10;23.00;;;;;;5094700;28;20705;-66
2022/04/17 01:59:22;;;;;;;14.73;8.60;;;10.20;22.10;;;;;;5094870;28;20179;-66
2022/04/17 02:01:49;;;;;;;16.35;8.88;;;10.10;21.30;;;;;;5103195;28;20688;-66
2022/04/17 02:04:15;;;;;;;15.80;9.02;;;10.10;21.40;;;;;;5094246;28;20299;-66
2022/04/17 02:06:42;;;;;;;13.68;8.73;;;10.00;22.10;;;;;;5095861;28;20335;-66
2022/04/17 02:09:11;;;;;;;14.48;8.57;;;10.00;24.60;;;;;;5108277;28;20178;-66
2022/04/17 02:11:38;;;;;;;13.10;8.40;;;10.10;22.00;;;;;;5101012;28;20210;-67
2022/04/17 02:14:08;;;;;;;14.23;8.43;;;9.80;24.30;;;;;;5093970;28;20186;-66
2022/04/17 02:16:33;;;;;;;16.60;8.60;;;9.90;24.90;;;;;;5095288;28;20178;-66
2022/04/17 02:19:00;;;;;;;16.40;8.20;;;9.90;23.70;;;;;;5102581;28;20561;-66
2022/04/17 02:21:27;;;;;;;13.77;8.73;;;9.90;24.40;;;;;;5108003;28;20604;-66
2022/04/17 02:23:52;;;;;;;15.20;8.60;;;9.80;24.00;;;;;;5099534;28;20209;-66
2022/04/17 02:26:18;;;;;;;15.00;8.70;;;9.60;24.80;;;;;;5096950;28;20449;-66
2022/04/17 02:28:45;;;;;;;15.77;9.03;;;9.60;25.60;;;;;;5094412;28;20205;-66
2022/04/17 02:31:11;;;;;;;12.18;8.05;;;9.70;25.90;;;;;;5114188;28;20170;-66
2022/04/17 02:33:38;;;;;;;15.37;9.27;;;9.70;24.30;;;;;;5095265;28;20550;-66
2022/04/17 02:36:05;;;;;;;13.02;8.23;;;9.90;24.40;;;;;;5094898;28;20215;-66
2022/04/17 02:38:30;;;;;;;20.80;9.77;;;10.00;22.60;;;;;;5093867;28;20189;-65
2022/04/17 02:40:56;;;;;;;16.50;8.67;;;10.00;23.30;;;;;;5094686;28;20179;-66
2022/04/17 02:43:23;;;;;;;12.98;8.70;;;9.90;24.40;;;;;;5104934;28;20232;-67
2022/04/17 02:45:53;;;;;;;12.70;8.40;;;9.90;23.50;;;;;;5114023;28;20174;-66
2022/04/17 02:48:19;;;;;;;11.60;8.30;;;9.90;23.10;;;;;;5098269;28;20550;-66
2022/04/17 02:50:46;;;;;;;16.27;8.43;;;9.70;24.20;;;;;;5094574;28;20186;-66
2022/04/17 02:53:12;;;;;;;13.75;8.75;;;9.50;24.00;;;;;;5105096;28;20552;-66
2022/04/17 02:55:38;;;;;;;13.13;8.30;;;9.40;25.10;;;;;;5113446;28;20255;-67
2022/04/17 02:58:04;;;;;;;12.97;8.53;;;9.40;25.30;;;;;;5111947;28;20185;-66
2022/04/17 03:00:31;;;;;;;20.30;8.87;;;9.20;24.80;;;;;;5111612;28;20182;-66
2022/04/17 03:05:41;;;;;;;12.68;7.90;;;9.30;24.60;;;;;;5111691;28;20612;-66
2022/04/17 03:08:12;;;;;;;16.90;8.30;;;9.40;24.40;;;;;;5095245;28;20205;-66
2022/04/17 03:10:40;;;;;;;13.80;8.10;;;9.50;23.50;;;;;;5113467;28;20181;-66
2022/04/17 03:13:06;;;;;;;15.60;8.15;;;9.30;24.00;;;;;;5099655;28;20179;-66
2022/04/17 03:15:38;;;;;;;14.02;8.00;;;9.20;23.20;;;;;;5104502;28;20269;-66
2022/04/17 03:18:05;;;;;;;14.10;8.13;;;9.30;23.40;;;;;;5095438;28;20234;-67
2022/04/17 03:20:31;;;;;;;19.20;8.18;;;9.50;24.30;;;;;;5111892;28;20189;-66
2022/04/17 03:22:57;;;;;;;13.20;8.77;;;9.80;22.10;;;;;;5110945;28;20189;-67
2022/04/17 03:25:23;;;;;;;14.23;7.37;;;9.70;22.50;;;;;;5108901;28;20435;-67
2022/04/17 03:27:49;;;;;;;15.63;8.20;;;9.90;23.20;;;;;;5093115;28;20278;-66
2022/04/17 03:30:16;;;;;;;12.07;7.63;;;9.70;23.90;;;;;;5094289;28;20705;-66
2022/04/17 03:32:46;;;;;;;13.90;7.90;;;9.70;23.10;;;;;;5097052;28;20419;-66
2022/04/17 03:35:13;;;;;;;16.83;7.45;;;9.80;23.30;;;;;;5092445;28;20674;-66
2022/04/17 03:37:42;;;;;;;14.45;7.45;;;10.00;21.70;;;;;;5110711;28;20189;-66
2022/04/17 03:40:10;;;;;;;11.50;7.22;;;9.90;21.40;;;;;;5111825;28;20178;-66
2022/04/17 03:42:36;;;;;;;11.10;7.57;;;9.80;22.00;;;;;;5113300;28;20169;-67
2022/04/17 03:45:06;;;;;;;10.52;7.05;;;9.80;23.40;;;;;;5111077;28;20245;-66
2022/04/17 03:47:32;;;;;;;10.73;6.72;;;9.90;24.60;;;;;;5102087;28;20182;-66
2022/04/17 03:49:58;;;;;;;10.65;7.28;;;9.80;23.50;;;;;;5093515;28;20171;-66
2022/04/17 03:52:24;;;;;;;11.07;7.35;;;9.60;24.10;;;;;;5111735;28;20170;-67
2022/04/17 03:54:49;;;;;;;12.53;7.10;;;9.40;25.20;;;;;;5111361;28;20282;-66
2022/04/17 03:57:15;;;;;;;11.30;7.00;;;9.60;25.90;;;;;;5110088;28;20544;-67
2022/04/17 03:59:41;;;;;;;16.37;7.40;;;9.70;24.10;;;;;;5092506;28;20201;-66
2022/04/17 04:02:07;;;;;;;12.13;6.83;;;9.70;23.40;;;;;;5093341;28;20179;-66
2022/04/17 04:04:33;;;;;;;15.18;7.22;;;9.70;25.10;;;;;;5092697;28;20202;-66
2022/04/17 04:06:59;;;;;;;11.00;6.90;;;9.80;23.70;;;;;;5093117;28;20184;-65
2022/04/17 04:09:25;;;;;;;11.13;7.10;;;9.60;24.60;;;;;;5097199;28;20190;-66
2022/04/17 04:11:50;;;;;;;12.40;7.47;;;9.30;23.30;;;;;;5093460;28;20210;-67
2022/04/17 04:14:16;;;;;;;14.50;8.03;;;9.20;22.90;;;;;;5092345;28;20191;-67
2022/04/17 04:16:42;;;;;;;14.03;7.80;;;9.00;23.10;;;;;;5095142;28;20171;-66
2022/04/17 04:19:10;;;;;;;14.03;8.50;;;8.90;23.60;;;;;;5101475;28;20170;-66
2022/04/17 04:21:47;;;;;;;15.38;8.20;;;8.80;24.00;;;;;;5104603;28;20177;-66
2022/04/17 04:24:14;;;;;;;16.40;9.05;;;9.00;23.50;;;;;;5092366;28;20217;-66
2022/04/17 04:26:41;;;;;;;19.90;9.10;;;9.20;23.60;;;;;;5096719;28;20205;-66
2022/04/17 04:29:06;;;;;;;18.20;8.82;;;9.30;24.70;;;;;;5111232;28;20166;-66
2022/04/17 04:31:32;;;;;;;14.87;8.33;;;9.50;23.40;;;;;;5091686;28;20529;-66
2022/04/17 04:33:57;;;;;;;13.20;8.80;;;9.70;24.10;;;;;;5092661;28;20580;-66
2022/04/17 04:36:23;;;;;;;15.50;8.47;;;9.40;24.00;;;;;;5091883;28;20290;-67
2022/04/17 04:38:49;;;;;;;14.23;9.20;;;9.30;24.10;;;;;;5106673;28;20806;-67
2022/04/17 04:41:14;;;;;;;13.03;8.57;;;8.90;24.20;;;;;;5104609;28;20186;-66
2022/04/17 04:43:40;;;;;;;16.53;9.67;;;9.10;25.40;;;;;;5109925;28;20693;-65
2022/04/17 04:46:09;;;;;;;16.30;9.30;;;9.10;26.00;;;;;;5093516;28;20165;-66
2022/04/17 04:51:26;;;;;;;14.90;9.60;;;9.30;25.50;;;;;;5102992;28;20543;-66
2022/04/17 04:53:52;;;;;;;20.73;11.57;;;9.00;25.30;;;;;;5102112;28;20209;-67
2022/04/17 04:56:19;;;;;;;18.23;10.57;;;9.20;25.70;;;;;;5108120;28;20224;-66
2022/04/17 04:58:45;;;;;;;23.90;9.90;;;9.20;25.00;;;;;;5107933;28;20182;-65
2022/04/17 05:01:11;;;;;;;18.58;10.00;;;9.20;24.90;;;;;;5109523;28;20221;-66
2022/04/17 05:03:37;;;;;;;17.10;10.00;;;9.30;24.90;;;;;;5091690;28;20196;-67
2022/04/17 05:06:03;;;;;;;19.07;10.87;;;9.10;26.30;;;;;;5111145;28;20189;-66
2022/04/17 05:08:29;;;;;;;15.60;10.10;;;9.20;26.00;;;;;;5111021;28;20532;-66
2022/04/17 05:10:55;;;;;;;18.40;11.07;;;9.20;25.40;;;;;;5104223;28;20209;-66
2022/04/17 05:13:21;;;;;;;15.13;9.30;;;9.20;26.10;;;;;;5096102;28;20440;-67
2022/04/17 05:15:46;;;;;;;18.80;10.07;;;9.40;24.80;;;;;;5091922;28;20977;-65
2022/04/17 05:18:12;;;;;;;18.97;10.43;;;9.00;26.20;;;;;;5090114;28;20249;-67
2022/04/17 05:20:38;;;;;;;19.50;10.57;;;9.00;26.20;;;;;;5101214;28;20544;-66
2022/04/17 05:23:26;;;;;;;16.30;9.23;;;9.10;26.20;;;;;;5102766;28;20676;-66
2022/04/17 05:25:53;;;;;;;17.17;10.18;;;9.00;25.90;;;;;;5109180;28;20178;-66
2022/04/17 05:28:19;;;;;;;16.67;9.90;;;8.70;26.30;;;;;;5106188;28;20257;-65
2022/04/17 05:30:45;;;;;;;16.00;10.70;;;9.20;26.00;;;;;;5092200;28;20538;-65
2022/04/17 05:33:11;;;;;;;16.63;10.67;;;8.50;25.80;;;;;;5091813;28;20747;-66
2022/04/17 05:35:38;;;;;;;21.45;10.85;;;8.60;26.10;;;;;;5091949;28;20693;-66
2022/04/17 05:38:04;;;;;;;16.50;10.70;;;8.90;25.80;;;;;;5090825;28;20205;-66
2022/04/17 05:40:35;;;;;;;16.52;10.70;;;9.20;25.90;;;;;;5090922;28;20750;-66
2022/04/17 05:43:02;;;;;;;16.58;9.85;;;9.30;26.30;;;;;;5107684;28;20261;-65
2022/04/17 05:45:28;;;;;;;17.13;9.90;;;9.40;25.90;;;;;;5104165;28;20189;-66
2022/04/17 05:47:54;;;;;;;18.40;10.90;;;9.40;26.40;;;;;;5110263;28;20185;-66
2022/04/17 05:50:20;;;;;;;15.45;10.45;;;9.60;24.60;;;;;;5110953;28;20419;-66
2022/04/17 05:52:46;;;;;;;16.50;9.87;;;9.70;25.20;;;;;;5105197;28;20182;-66
2022/04/17 05:55:11;;;;;;;16.77;10.00;;;9.50;24.60;;;;;;5099445;28;20380;-66
2022/04/17 05:57:37;;;;;;;17.53;10.37;;;9.20;25.10;;;;;;5110503;28;20170;-66
2022/04/17 06:00:08;;;;;;;19.00;11.07;;;9.00;25.20;;;;;;5110845;28;20200;-67
2022/04/17 06:02:38;;;;;;;18.15;9.98;;;9.00;25.40;;;;;;5108845;28;20183;-65
2022/04/17 06:05:04;;;;;;;14.32;9.23;;;9.40;25.70;;;;;;5108057;28;20251;-66
2022/04/17 06:07:30;;;;;;;18.30;9.93;;;10.00;23.90;;;;;;5104939;28;20669;-66
2022/04/17 06:10:00;;;;;;;15.30;9.90;;;10.60;22.90;;;;;;5102424;28;20208;-66
2022/04/17 06:12:25;;;;;;;19.80;9.25;;;10.90;22.50;;;;;;5099636;28;20255;-67
2022/04/17 06:14:51;;;;;;;13.73;8.87;;;11.10;21.40;;;;;;5103686;28;20220;-67
2022/04/17 06:17:16;;;;;;;24.73;9.87;;;11.30;22.30;;;;;;5103498;28;20172;-67
2022/04/17 06:19:43;;;;;;;24.67;9.63;;;11.90;21.00;;;;;;5101056;28;20666;-66
2022/04/17 06:22:11;;;;;;;13.52;8.52;;;12.00;22.00;;;;;;5097467;28;20170;-67
2022/04/17 06:24:36;;;;;;;13.10;8.67;;;11.90;20.20;;;;;;5100579;28;20281;-66
2022/04/17 06:27:02;;;;;;;13.33;8.43;;;11.70;20.00;;;;;;5103891;28;20518;-67
2022/04/17 06:29:28;;;;;;;16.77;8.50;;;11.60;20.00;;;;;;5103138;28;20216;-65
2022/04/17 06:31:53;;;;;;;33.53;8.93;;;11.30;21.30;;;;;;5103934;28;20584;-65
2022/04/17 06:34:19;;;;;;;17.00;8.67;;;11.30;21.50;;;;;;5103368;28;20198;-66
2022/04/17 06:36:44;;;;;;;12.93;8.00;;;11.40;21.10;;;;;;5102511;28;20186;-68
2022/04/17 06:39:10;;;;;;;19.10;9.17;;;11.30;21.20;;;;;;5105186;28;20176;-66
2022/04/17 06:41:36;;;;;;;17.07;9.70;;;11.40;21.10;;;;;;5103594;28;20618;-65
2022/04/17 06:44:02;;;;;;;12.20;8.30;;;11.40;21.00;;;;;;5102554;28;20452;-65
2022/04/17 06:46:27;;;;;;;16.03;9.67;;;11.60;20.60;;;;;;5105134;28;20187;-66
2022/04/17 06:48:53;;;;;;;23.43;9.33;;;11.30;21.50;;;;;;5101865;28;20423;-66
2022/04/17 06:51:23;;;;;;;14.13;8.52;;;11.30;21.20;;;;;;5103578;28;20672;-67
2022/04/17 06:53:50;;;;;;;15.15;9.48;;;11.30;21.00;;;;;;5101127;28;20565;-67
2022/04/17 06:56:18;;;;;;;11.95;8.40;;;11.60;21.90;;;;;;5104323;28;20695;-66
2022/04/17 06:58:53;;;;;;;17.48;8.43;;;12.00;20.90;;;;;;5102312;28;20180;-66
2022/04/17 07:01:19;;;;;;;12.13;7.33;;;11.80;20.90;;;;;;5102423;28;20199;-66
2022/04/17 07:03:47;;;;;;;11.10;8.00;;;11.50;19.90;;;;;;5101358;28;20436;-66
2022/04/17 07:06:13;;;;;;;12.93;8.07;;;11.50;20.70;;;;;;5103178;28;20174;-66
2022/04/17 07:08:39;;;;;;;14.20;8.17;;;11.70;20.20;;;;;;5101062;28;20967;-65
2022/04/17 07:11:04;;;;;;;13.27;7.27;;;11.80;20.80;;;;;;5099907;28;20178;-66
2022/04/17 07:13:31;;;;;;;12.43;7.93;;;11.80;20.10;;;;;;5103599;28;20578;-66
2022/04/17 07:15:56;;;;;;;14.93;8.30;;;11.80;20.10;;;;;;5101405;28;20204;-66
2022/04/17 07:18:22;;;;;;;13.93;7.83;;;12.10;20.30;;;;;;5102916;28;20415;-66
2022/04/17 07:20:48;;;;;;;11.80;6.47;;;12.20;19.00;;;;;;5107281;28;20166;-66
2022/04/17 07:23:14;;;;;;;14.20;7.40;;;12.30;18.90;;;;;;5096640;28;20516;-67
2022/04/17 07:25:41;;;;;;;9.17;6.00;;;12.10;19.20;;;;;;5093448;28;20436;-67
2022/04/17 07:28:12;;;;;;;12.83;5.57;;;12.10;19.50;;;;;;5108790;28;20454;-66
2022/04/17 07:30:38;;;;;;;9.00;5.80;;;11.90;17.90;;;;;;5092417;28;20508;-66
2022/04/17 07:33:04;;;;;;;16.90;6.17;;;12.40;18.00;;;;;;5092756;28;21191;-66
2022/04/17 07:35:30;;;;;;;9.00;5.63;;;12.80;16.60;;;;;;5092839;28;20452;-66
2022/04/17 07:38:01;;;;;;;8.37;5.33;;;13.00;16.10;;;;;;5094601;28;20447;-67
2022/04/17 07:40:28;;;;;;;9.13;5.70;;;12.70;15.90;;;;;;5111225;28;20412;-65
2022/04/17 07:42:56;;;;;;;9.67;6.07;;;12.60;16.50;;;;;;5101364;28;20417;-65
2022/04/17 07:45:23;;;;;;;9.00;5.87;;;12.20;17.00;;;;;;5052092;28;1140821;-67
2022/04/17 07:47:49;;;;;;;11.73;6.20;;;12.00;17.60;;;;;;5095919;28;20187;-65
2022/04/17 07:50:17;;;;;;;8.70;5.17;;;12.10;17.80;;;;;;5105387;28;20504;-66
2022/04/17 07:52:43;;;;;;;10.10;5.80;;;12.30;18.00;;;;;;5092140;28;20474;-65
2022/04/17 07:55:12;;;;;;;19.80;5.03;;;12.00;18.30;;;;;;5103997;28;20493;-66
2022/04/17 08:00:28;;;;;;;11.07;5.60;;;12.50;16.90;;;;;;5110633;28;20499;-66
2022/04/17 08:03:07;;;;;;;12.40;5.73;;;12.40;17.10;;;;;;5112344;28;20435;-66
2022/04/17 08:05:38;;;;;;;9.03;5.30;;;12.70;16.20;;;;;;5112504;28;20441;-66
2022/04/17 08:08:05;;;;;;;8.93;5.50;;;12.70;16.70;;;;;;5110564;28;20430;-66
2022/04/17 08:10:30;;;;;;;8.80;5.60;;;12.40;17.00;;;;;;5110881;28;20519;-66
2022/04/17 08:12:56;;;;;;;7.87;4.87;;;12.30;16.90;;;;;;5075330;28;21002;-67
2022/04/17 08:15:21;;;;;;;7.17;5.33;;;12.10;16.10;;;;;;5092041;28;20293;-66
2022/04/17 08:17:47;;;;;;;11.07;5.90;;;12.10;16.40;;;;;;5100539;28;20182;-67
2022/04/17 08:20:13;;;;;;;12.70;5.37;;;12.40;16.80;;;;;;5096268;28;20180;-66
2022/04/17 08:22:38;;;;;;;9.93;5.30;;;12.70;15.90;;;;;;5092917;28;20206;-66
2022/04/17 08:25:05;;;;;;;7.40;5.33;;;13.00;14.80;;;;;;5091774;28;20211;-67
2022/04/17 08:27:30;;;;;;;8.97;5.90;;;13.20;15.00;;;;;;5092586;28;20186;-67
2022/04/17 08:29:56;;;;;;;6.93;4.70;;;13.70;15.00;;;;;;5107679;28;20803;-67
2022/04/17 08:32:21;;;;;;;7.83;4.60;;;14.20;14.40;;;;;;5110185;28;20255;-67
2022/04/17 08:34:47;;;;;;;7.70;5.30;;;14.20;13.90;;;;;;5101217;28;20237;-66
2022/04/17 08:37:13;;;;;;;10.13;5.00;;;14.10;13.90;;;;;;5111980;28;20232;-67
2022/04/17 08:39:38;;;;;;;8.10;5.03;;;13.80;13.50;;;;;;5097395;28;20236;-67
2022/04/17 08:42:05;;;;;;;8.27;5.03;;;13.60;14.00;;;;;;5109976;28;20191;-66
2022/04/17 08:44:31;;;;;;;6.47;4.53;;;13.70;15.20;;;;;;5109078;28;20215;-67
2022/04/17 08:46:57;;;;;;;6.90;4.50;;;14.10;14.80;;;;;;5111562;28;20446;-66
2022/04/17 08:49:24;;;;;;;9.37;5.47;;;14.60;13.80;;;;;;5108564;28;20190;-67
2022/04/17 08:51:53;;;;;;;9.03;5.30;;;14.90;12.70;;;;;;5110566;28;20718;-66
2022/04/17 08:54:20;;;;;;;7.47;4.90;;;15.10;12.50;;;;;;5096321;28;20449;-67
2022/04/17 08:56:45;;;;;;;7.67;5.17;;;15.20;12.90;;;;;;5111531;28;20535;-68
2022/04/17 08:59:11;;;;;;;6.80;4.47;;;15.10;12.00;;;;;;5099459;28;20452;-68
2022/04/17 09:01:37;;;;;;;8.80;4.60;;;14.30;11.50;;;;;;5102578;28;20173;-66
2022/04/17 09:04:06;;;;;;;14.10;4.37;;;14.50;12.00;;;;;;5108696;28;20198;-67
2022/04/17 09:06:34;;;;;;;7.67;4.70;;;14.40;11.40;;;;;;5110800;28;20788;-67
2022/04/17 09:09:04;;;;;;;9.70;5.27;;;14.70;12.10;;;;;;5106812;28;20430;-66
2022/04/17 09:11:32;;;;;;;7.23;4.90;;;14.80;11.60;;;;;;5102237;28;20426;-67
2022/04/17 09:14:01;;;;;;;10.13;5.80;;;14.80;13.10;;;;;;5106569;28;21008;-67
2022/04/17 09:16:39;;;;;;;8.17;5.17;;;15.40;13.40;;;;;;5091370;28;20478;-66
2022/04/17 09:19:16;;;;;;;13.50;4.83;;;15.60;11.00;;;;;;5100254;28;20524;-67
2022/04/17 09:21:42;;;;;;;9.50;5.00;;;15.40;12.00;;;;;;5109478;28;20423;-67
2022/04/17 09:24:19;;;;;;;6.60;4.87;;;15.90;11.60;;;;;;5090883;28;20792;-67
2022/04/17 09:26:52;;;;;;;6.17;4.27;;;15.90;11.00;;;;;;5091268;28;20185;-68
2022/04/17 09:29:21;;;;;;;6.10;3.90;;;15.50;12.30;;;;;;5100932;28;20444;-69
2022/04/17 09:31:47;;;;;;;5.60;3.30;;;15.10;11.80;;;;;;5090739;28;20866;-69
2022/04/17 09:34:13;;;;;;;7.37;3.70;;;14.80;10.10;;;;;;5090875;28;20469;-73
2022/04/17 09:36:39;;;;;;;7.27;3.80;;;15.30;8.90;;;;;;5087737;28;20981;-73
2022/04/17 09:39:15;;;;;;;12.37;4.20;;;15.20;10.00;;;;;;5099853;28;20419;-72
2022/04/17 09:42:05;;;;;;;5.80;3.50;;;15.10;10.40;;;;;;5090364;28;20182;-71
2022/04/17 09:44:47;;;;;;;6.37;3.80;;;15.90;9.30;;;;;;5104684;28;20585;-69
2022/04/17 09:47:20;;;;;;;6.30;3.80;;;16.20;9.20;;;;;;5109793;28;20419;-70
2022/04/17 09:49:58;;;;;;;5.67;3.60;;;15.80;9.80;;;;;;5110812;28;20408;-69
2022/04/17 09:52:31;;;;;;;6.97;4.10;;;16.00;9.80;;;;;;5090636;28;20445;-70
2022/04/17 09:54:58;;;;;;;5.37;4.20;;;16.10;9.50;;;;;;5091849;28;20503;-69
2022/04/17 09:57:35;;;;;;;127.33;72.47;;;16.70;9.10;;;;;;5097180;28;20449;-69
2022/04/17 10:00:10;;;;;;;11.90;6.80;;;16.60;9.00;;;;;;5107001;28;20512;-68
2022/04/17 10:02:40;;;;;;;5.60;3.97;;;16.60;10.30;;;;;;5101211;28;20416;-70
2022/04/17 10:05:11;;;;;;;5.90;3.90;;;16.90;9.20;;;;;;5105181;28;20446;-69
2022/04/17 10:07:38;;;;;;;5.73;3.57;;;17.40;8.20;;;;;;5105368;28;20782;-69
2022/04/17 10:10:06;;;;;;;8.50;3.70;;;17.30;7.10;;;;;;5086754;28;20445;-69
2022/04/17 10:12:34;;;;;;;5.40;3.60;;;17.60;7.90;;;;;;5103068;28;20415;-70
2022/04/17 10:15:04;;;;;;;7.13;3.77;;;17.90;7.00;;;;;;5101835;28;20457;-71
2022/04/17 10:17:31;;;;;;;6.20;3.60;;;17.20;8.20;;;;;;5101003;28;20473;-68
2022/04/17 10:20:02;;;;;;;5.73;3.60;;;17.10;7.20;;;;;;5104693;28;20431;-73
2022/04/17 10:22:33;;;;;;;6.87;4.20;;;17.20;9.40;;;;;;5102532;28;20414;-71
2022/04/17 10:24:59;;;;;;;7.70;5.50;;;17.60;10.00;;;;;;5099097;28;20439;-73
2022/04/17 10:27:32;;;;;;;5.50;3.40;;;17.50;7.60;;;;;;5098623;28;20429;-70
2022/04/17 10:30:12;;;;;;;4.23;3.33;;;17.90;8.40;;;;;;5097764;28;20988;-71
2022/04/17 10:32:44;;;;;;;5.33;3.33;;;18.40;6.20;;;;;;5092386;28;20801;-71
2022/04/17 10:35:45;;;;;;;5.10;3.70;;;18.50;6.20;;;;;;5105918;28;20466;-72
2022/04/17 10:38:28;;;;;;;5.30;3.40;;;17.90;6.70;;;;;;5103689;28;20845;-72
2022/04/17 10:41:03;;;;;;;5.37;3.33;;;17.90;7.00;;;;;;5108601;28;20462;-72
2022/04/17 10:43:34;;;;;;;5.10;3.37;;;18.30;7.60;;;;;;5113141;28;20445;-72
2022/04/17 10:46:14;;;;;;;4.83;3.30;;;18.60;7.10;;;;;;5106239;28;21342;-72
2022/04/17 10:48:44;;;;;;;6.37;3.47;;;17.90;6.00;;;;;;5108088;28;20406;-72
2022/04/17 10:51:20;;;;;;;5.43;3.57;;;18.20;6.80;;;;;;5106047;28;20424;-72
2022/04/17 10:53:50;;;;;;;4.50;3.30;;;18.90;5.10;;;;;;5106352;28;20445;-72
2022/04/17 10:56:17;;;;;;;5.83;3.73;;;18.70;7.20;;;;;;5096133;28;20493;-72
2022/04/17 10:58:52;;;;;;;7.27;3.97;;;18.90;7.50;;;;;;5101522;28;20407;-73
2022/04/17 11:01:43;;;;;;;6.90;4.00;;;19.50;7.80;;;;;;5102377;28;20802;-72
2022/04/17 11:04:26;;;;;;;7.30;4.13;;;20.10;7.20;;;;;;5098913;28;20524;-71
2022/04/17 11:07:12;;;;;;;5.27;3.53;;;20.20;7.60;;;;;;5101598;28;20427;-70
2022/04/17 11:09:44;;;;;;;5.23;3.43;;;20.30;9.10;;;;;;5081122;28;21095;-68
2022/04/17 11:12:19;;;;;;;5.27;3.90;;;20.70;5.90;;;;;;5096291;28;20787;-69
2022/04/17 11:15:15;;;;;;;4.80;2.80;;;20.80;5.60;;;;;;5104928;28;20575;-67
2022/04/17 11:17:41;;;;;;;5.10;3.27;;;20.20;8.90;;;;;;5098591;28;20417;-67
2022/04/17 11:20:09;;;;;;;4.50;3.47;;;20.90;8.40;;;;;;5101147;28;20431;-70
2022/04/17 11:22:36;;;;;;;5.10;3.30;;;22.00;6.50;;;;;;5097487;28;20425;-71
2022/04/17 11:25:07;;;;;;;6.43;4.00;;;23.00;6.70;;;;;;5101586;28;20447;-72
2022/04/17 11:27:42;;;;;;;5.10;3.33;;;23.70;5.90;;;;;;5093213;28;20822;-72
2022/04/17 11:30:30;;;;;;;5.40;3.77;;;24.30;4.50;;;;;;5105875;28;20851;-72
2022/04/17 11:32:56;;;;;;;5.50;3.70;;;25.70;3.60;;;;;;5099922;28;20513;-71
2022/04/17 11:35:24;;;;;;;5.03;3.50;;;26.10;3.10;;;;;;5101927;28;20707;-71
2022/04/17 11:38:02;;;;;;;4.63;3.47;;;24.30;3.40;;;;;;5106254;28;20178;-70
2022/04/17 11:40:31;;;;;;;4.80;3.57;;;25.10;2.20;;;;;;5103275;28;20443;-71
2022/04/17 11:43:03;;;;;;;6.03;3.47;;;24.10;4.60;;;;;;5104535;28;20434;-72
2022/04/17 11:45:29;;;;;;;9.40;3.40;;;24.60;4.20;;;;;;5102819;28;20424;-71
2022/04/17 11:47:56;;;;;;;4.37;3.20;;;24.60;3.60;;;;;;5092957;28;20404;-71
2022/04/17 11:50:29;;;;;;;4.67;3.47;;;25.50;2.30;;;;;;5094312;28;20185;-72
2022/04/17 11:53:03;;;;;;;8.13;3.70;;;25.60;2.10;;;;;;5104637;28;20779;-71
2022/04/17 11:55:31;;;;;;;5.87;3.20;;;25.80;1.80;;;;;;5100998;28;20482;-71
2022/04/17 11:57:58;;;;;;;4.80;3.07;;;25.90;4.00;;;;;;5112815;28;20408;-71
2022/04/17 12:00:25;;;;;;;5.60;3.20;;;26.20;3.20;;;;;;5100245;28;20511;-72
2022/04/17 12:03:19;;;;;;;4.70;3.30;;;27.10;4.10;;;;;;5097110;28;20412;-72
2022/04/17 12:05:45;;;;;;;5.00;3.27;;;28.10;1.00;;;;;;5133524;22;20516;-68
2022/04/17 12:08:11;;;;;;;5.60;3.10;;;27.40;2.70;;;;;;5121314;27;20450;-69
2022/04/17 12:10:40;;;;;;;5.57;3.40;;;28.20;1.20;;;;;;5132275;27;20246;-68
2022/04/17 12:13:13;;;;;;;4.83;3.37;;;27.40;2.90;;;;;;5131202;27;20450;-72
2022/04/17 12:15:39;;;;;;;5.87;3.20;;;27.70;1.00;;;;;;5106820;27;21036;-69
2022/04/17 12:18:04;;;;;;;4.37;2.70;;;28.50;1.20;;;;;;5110664;28;20418;-69
2022/04/17 12:20:30;;;;;;;6.10;3.00;;;28.40;1.90;;;;;;5108944;28;20174;-70
2022/04/17 12:22:56;;;;;;;3.30;2.70;;;29.00;1.00;;;;;;5100152;28;20171;-69
2022/04/17 12:25:26;;;;;;;4.60;3.10;;;28.90;1.00;;;;;;5110861;27;20206;-68
2022/04/17 12:27:54;;;;;;;6.20;3.10;;;28.30;1.00;;;;;;5096330;28;20186;-69
2022/04/17 12:30:21;;;;;;;6.40;3.20;;;28.70;1.70;;;;;;5092586;28;21039;-69
2022/04/17 12:32:48;;;;;;;5.37;2.90;;;29.10;1.00;;;;;;5097978;28;20422;-70
2022/04/17 12:35:23;;;;;;;4.10;2.90;;;29.00;1.70;;;;;;5101690;28;20453;-68
2022/04/17 12:37:48;;;;;;;3.77;2.87;;;28.70;1.00;;;;;;5101758;28;20427;-68
2022/04/17 12:40:19;;;;;;;6.00;3.07;;;28.20;1.00;;;;;;5100201;28;20413;-69
2022/04/17 12:42:45;;;;;;;6.63;2.93;;;27.30;1.00;;;;;;5100458;28;20243;-69
2022/04/17 12:45:23;;;;;;;5.70;3.27;;;26.40;2.90;;;;;;5105256;28;20949;-70
2022/04/17 12:48:05;;;;;;;6.73;3.10;;;24.50;3.90;;;;;;5092063;28;20169;-68
2022/04/17 12:50:31;;;;;;;7.87;3.43;;;23.90;6.50;;;;;;5102436;28;20455;-68
2022/04/17 12:52:58;;;;;;;9.73;3.40;;;23.80;4.40;;;;;;5108837;28;20508;-68
2022/04/17 12:55:34;;;;;;;9.00;3.40;;;24.60;3.60;;;;;;5105346;28;20690;-69
2022/04/17 12:58:04;;;;;;;5.27;3.60;;;24.60;5.60;;;;;;5107237;28;20976;-69
2022/04/17 13:00:30;;;;;;;5.50;3.53;;;24.90;5.80;;;;;;5102114;28;20511;-69
2022/04/17 13:03:10;;;;;;;5.90;3.43;;;25.00;3.00;;;;;;5097402;28;20470;-68